createdAt,value
2023-04-27T00:01:09.792Z,100.00
2023-04-27T00:03:37.057Z,100.00
2023-04-27T00:06:04.324Z,100.00
2023-04-27T00:08:32.014Z,100.00
2023-04-27T00:11:00.124Z,100.00
2023-04-27T00:13:27.523Z,100.00
2023-04-27T00:15:55.191Z,100.00
2023-04-27T00:18:22.279Z,100.00
2023-04-27T00:20:49.432Z,100.00
2023-04-27T00:23:16.489Z,100.00
2023-04-27T00:25:43.562Z,100.00
2023-04-27T00:28:10.663Z,100.00
2023-04-27T00:30:37.774Z,100.00
2023-04-27T00:33:05.319Z,100.00
2023-04-27T00:35:33.465Z,100.00
2023-04-27T00:38:00.643Z,100.00
2023-04-27T00:40:27.752Z,100.00
2023-04-27T00:42:55.501Z,100.00
2023-04-27T00:45:22.591Z,100.00
2023-04-27T00:47:49.921Z,100.00
2023-04-27T00:50:22.497Z,100.00
2023-04-27T00:52:49.823Z,100.00
2023-04-27T00:55:16.938Z,100.00
2023-04-27T00:57:44.068Z,100.00
2023-04-27T01:00:11.814Z,100.00
2023-04-27T01:02:40.188Z,100.00
2023-04-27T01:05:08.659Z,100.00
2023-04-27T01:07:39.761Z,100.00
2023-04-27T01:10:07.753Z,100.00
2023-04-27T01:12:35.040Z,100.00
2023-04-27T01:15:02.203Z,100.00
2023-04-27T01:17:29.350Z,100.00
2023-04-27T01:19:56.827Z,100.00
2023-04-27T01:22:24.280Z,100.00
2023-04-27T01:24:51.744Z,100.00
2023-04-27T01:27:19.087Z,100.00
2023-04-27T01:29:46.227Z,100.00
2023-04-27T01:32:13.659Z,100.00
2023-04-27T01:34:40.814Z,100.00
2023-04-27T01:37:07.937Z,100.00
2023-04-27T01:39:35.623Z,100.00
2023-04-27T01:42:03.715Z,100.00
2023-04-27T01:44:31.010Z,100.00
2023-04-27T01:46:58.138Z,100.00
2023-04-27T01:49:25.911Z,100.00
2023-04-27T01:51:52.992Z,100.00
2023-04-27T01:54:20.050Z,100.00
2023-04-27T01:56:47.229Z,100.00
2023-04-27T01:59:14.590Z,100.00
2023-04-27T02:01:41.944Z,100.00
2023-04-27T02:04:09.187Z,100.00
2023-04-27T02:06:36.497Z,100.00
2023-04-27T02:09:03.595Z,100.00
2023-04-27T02:11:30.648Z,100.00
2023-04-27T02:13:57.904Z,100.00
2023-04-27T02:16:25.017Z,100.00
2023-04-27T02:18:53.789Z,100.00
2023-04-27T02:21:21.105Z,100.00
2023-04-27T02:23:48.275Z,100.00
2023-04-27T02:26:22.382Z,100.00
2023-04-27T02:28:50.134Z,100.00
2023-04-27T02:31:17.662Z,100.00
2023-04-27T02:33:44.797Z,100.00
2023-04-27T02:36:11.854Z,100.00
2023-04-27T02:38:42.448Z,100.00
2023-04-27T02:41:09.517Z,100.00
2023-04-27T02:43:36.621Z,100.00
2023-04-27T02:46:04.547Z,100.00
2023-04-27T02:48:31.893Z,100.00
2023-04-27T02:50:59.082Z,100.00
2023-04-27T02:53:26.281Z,100.00
2023-04-27T02:55:53.405Z,100.00
2023-04-27T02:58:20.596Z,100.00
2023-04-27T03:00:48.862Z,100.00
2023-04-27T03:03:16.279Z,100.00
2023-04-27T03:05:43.508Z,100.00
2023-04-27T03:08:10.645Z,100.00
2023-04-27T03:10:37.854Z,100.00
2023-04-27T03:13:06.137Z,100.00
2023-04-27T03:15:33.301Z,100.00
2023-04-27T03:18:00.469Z,100.00
2023-04-27T03:20:27.588Z,100.00
2023-04-27T03:22:55.274Z,100.00
2023-04-27T03:25:22.525Z,100.00
2023-04-27T03:27:49.675Z,100.00
2023-04-27T03:30:16.821Z,100.00
2023-04-27T03:32:45.498Z,100.00
2023-04-27T03:35:14.257Z,100.00
2023-04-27T03:37:41.412Z,100.00
2023-04-27T03:40:09.202Z,100.00
2023-04-27T03:42:36.323Z,100.00
2023-04-27T03:45:04.183Z,100.00
2023-04-27T03:47:31.533Z,100.00
2023-04-27T03:49:58.693Z,100.00
2023-04-27T03:52:26.455Z,100.00
2023-04-27T03:54:53.500Z,100.00
2023-04-27T03:57:20.563Z,100.00
2023-04-27T03:59:47.606Z,100.00
2023-04-27T04:02:15.176Z,100.00
2023-04-27T04:04:42.660Z,100.00
2023-04-27T04:07:09.995Z,100.00
2023-04-27T04:09:37.123Z,100.00
2023-04-27T04:12:04.615Z,100.00
2023-04-27T04:14:31.918Z,100.00
2023-04-27T04:16:59.033Z,100.00
2023-04-27T04:19:26.062Z,100.00
2023-04-27T04:21:54.729Z,100.00
2023-04-27T04:24:21.778Z,100.00
2023-04-27T04:26:48.930Z,100.00
2023-04-27T04:29:16.983Z,100.00
2023-04-27T04:31:44.325Z,100.00
2023-04-27T04:34:11.505Z,100.00
2023-04-27T04:36:38.574Z,100.00
2023-04-27T04:39:07.017Z,100.00
2023-04-27T04:41:34.108Z,100.00
2023-04-27T04:44:01.646Z,100.00
2023-04-27T04:46:28.840Z,100.00
2023-04-27T04:48:58.684Z,100.00
2023-04-27T04:51:26.697Z,100.00
2023-04-27T04:53:53.914Z,100.00
2023-04-27T04:56:21.200Z,100.00
2023-04-27T04:58:48.365Z,100.00
2023-04-27T05:01:16.060Z,100.00
2023-04-27T05:03:43.286Z,100.00
2023-04-27T05:06:10.551Z,100.00
2023-04-27T05:08:37.645Z,100.00
2023-04-27T05:11:04.934Z,100.00
2023-04-27T05:13:32.047Z,100.00
2023-04-27T05:15:59.235Z,100.00
2023-04-27T05:18:26.386Z,100.00
2023-04-27T05:20:53.758Z,100.00
2023-04-27T05:23:21.062Z,100.00
2023-04-27T05:25:48.111Z,100.00
2023-04-27T05:28:15.984Z,100.00
2023-04-27T05:30:43.032Z,100.00
2023-04-27T05:33:10.152Z,100.00
2023-04-27T05:35:37.333Z,100.00
2023-04-27T05:38:04.957Z,100.00
2023-04-27T05:40:32.295Z,100.00
2023-04-27T05:43:01.826Z,100.00
2023-04-27T05:45:28.917Z,100.00
2023-04-27T05:47:56.030Z,100.00
2023-04-27T05:50:23.277Z,100.00
2023-04-27T05:52:50.929Z,100.00
2023-04-27T05:55:18.081Z,100.00
2023-04-27T05:57:47.697Z,100.00
2023-04-27T06:00:17.508Z,100.00
2023-04-27T06:02:44.766Z,100.00
2023-04-27T06:05:12.144Z,100.00
2023-04-27T06:07:39.597Z,100.00
2023-04-27T06:10:07.680Z,100.00
2023-04-27T06:12:35.371Z,100.00
2023-04-27T06:15:09.303Z,100.00
2023-04-27T06:17:36.783Z,100.00
2023-04-27T06:20:07.398Z,100.00
2023-04-27T06:22:37.028Z,100.00
2023-04-27T06:25:05.793Z,100.00
2023-04-27T06:27:33.854Z,100.00
2023-04-27T06:30:01.722Z,100.00
2023-04-27T06:32:28.952Z,100.00
2023-04-27T06:34:56.705Z,100.00
2023-04-27T06:37:24.196Z,100.00
2023-04-27T06:39:51.492Z,100.00
2023-04-27T06:42:18.593Z,100.00
2023-04-27T06:44:46.223Z,100.00
2023-04-27T06:47:13.701Z,100.00
2023-04-27T06:49:40.785Z,100.00
2023-04-27T06:52:07.923Z,100.00
2023-04-27T06:54:35.235Z,100.00
2023-04-27T06:57:03.509Z,100.00
2023-04-27T06:59:30.813Z,100.00
2023-04-27T07:01:57.992Z,100.00
2023-04-27T07:04:28.189Z,100.00
2023-04-27T07:06:56.400Z,100.00
2023-04-27T07:09:27.575Z,100.00
2023-04-27T07:11:55.839Z,100.00
2023-04-27T07:14:22.926Z,100.00
2023-04-27T07:16:50.273Z,100.00
2023-04-27T07:19:17.631Z,100.00
2023-04-27T07:21:44.806Z,100.00
2023-04-27T07:24:11.951Z,100.00
2023-04-27T07:26:39.502Z,100.00
2023-04-27T07:29:19.034Z,100.00
2023-04-27T07:31:53.259Z,100.00
2023-04-27T07:34:20.397Z,100.00
2023-04-27T07:36:47.792Z,100.00
2023-04-27T07:39:15.047Z,100.00
2023-04-27T07:41:42.338Z,100.00
2023-04-27T07:44:09.525Z,100.00
2023-04-27T07:46:38.488Z,100.00
2023-04-27T07:49:05.741Z,100.00
2023-04-27T07:51:35.258Z,88.06
2023-04-27T07:54:05.394Z,87.54
2023-04-27T07:56:33.067Z,85.82
2023-04-27T07:59:00.272Z,83.38
2023-04-27T08:01:27.457Z,79.67
2023-04-27T08:03:55.337Z,81.92
2023-04-27T08:06:23.582Z,70.11
2023-04-27T08:08:51.477Z,70.84
2023-04-27T08:11:18.576Z,70.40
2023-04-27T08:13:45.921Z,68.32
2023-04-27T08:16:13.129Z,62.39
2023-04-27T08:18:40.392Z,62.01
2023-04-27T08:21:07.400Z,64.38
2023-04-27T08:23:37.117Z,62.50
2023-04-27T08:26:05.059Z,60.96
2023-04-27T08:28:32.232Z,64.41
2023-04-27T08:30:59.895Z,59.80
2023-04-27T08:33:27.098Z,58.53
2023-04-27T08:35:55.274Z,58.36
2023-04-27T08:38:25.040Z,60.29
2023-04-27T08:40:52.821Z,61.10
2023-04-27T08:43:19.934Z,56.55
2023-04-27T08:45:50.552Z,54.14
2023-04-27T08:48:17.801Z,53.92
2023-04-27T08:50:48.759Z,54.43
2023-04-27T08:53:23.385Z,55.60
2023-04-27T08:55:51.458Z,52.73
2023-04-27T08:58:19.285Z,53.71
2023-04-27T09:00:47.942Z,54.76
2023-04-27T09:03:26.094Z,55.74
2023-04-27T09:06:05.195Z,52.90
2023-04-27T09:08:48.410Z,53.96
2023-04-27T09:11:29.565Z,54.82
2023-04-27T09:13:58.759Z,54.37
2023-04-27T09:16:28.555Z,52.22
2023-04-27T09:18:57.771Z,51.67
2023-04-27T09:21:29.159Z,52.46
2023-04-27T09:23:57.430Z,50.54
2023-04-27T09:26:27.138Z,49.44
2023-04-27T09:28:57.932Z,49.38
2023-04-27T09:31:35.862Z,49.26
2023-04-27T09:34:04.142Z,49.24
2023-04-27T09:36:32.772Z,49.47
2023-04-27T09:39:06.491Z,51.60
2023-04-27T09:41:34.168Z,48.98
2023-04-27T09:44:02.042Z,49.94
2023-04-27T09:46:29.980Z,47.64
2023-04-27T09:48:58.192Z,47.85
2023-04-27T09:51:26.098Z,46.49
2023-04-27T09:53:58.435Z,47.93
2023-04-27T09:56:57.661Z,47.21
2023-04-27T09:59:44.724Z,45.47
2023-04-27T10:02:25.183Z,44.49
2023-04-27T10:05:27.549Z,45.82
2023-04-27T10:07:55.527Z,46.99
2023-04-27T10:10:22.612Z,45.33
2023-04-27T10:12:57.776Z,47.40
2023-04-27T10:15:29.802Z,46.88
2023-04-27T10:18:03.615Z,46.77
2023-04-27T10:20:33.167Z,45.35
2023-04-27T10:23:00.836Z,43.44
2023-04-27T10:25:30.360Z,46.00
2023-04-27T10:28:02.068Z,45.06
2023-04-27T10:30:39.675Z,45.34
2023-04-27T10:33:09.311Z,45.66
2023-04-27T10:35:46.036Z,44.97
2023-04-27T10:38:21.798Z,45.79
2023-04-27T10:41:05.422Z,46.16
2023-04-27T10:43:37.822Z,43.82
2023-04-27T10:46:12.833Z,45.78
2023-04-27T10:48:41.278Z,45.16
2023-04-27T10:51:08.478Z,44.24
2023-04-27T10:53:36.858Z,43.65
2023-04-27T10:56:07.048Z,44.19
2023-04-27T10:58:48.120Z,42.41
2023-04-27T11:01:29.765Z,43.06
2023-04-27T11:04:01.749Z,44.28
2023-04-27T11:06:34.113Z,44.75
2023-04-27T11:09:01.710Z,45.15
2023-04-27T11:11:28.875Z,44.93
2023-04-27T11:13:56.479Z,44.97
2023-04-27T11:16:24.243Z,43.28
2023-04-27T11:18:51.414Z,45.99
2023-04-27T11:21:23.631Z,43.26
2023-04-27T11:23:51.265Z,44.30
2023-04-27T11:26:21.517Z,44.28
2023-04-27T11:29:06.285Z,45.30
2023-04-27T11:31:43.415Z,45.25
2023-04-27T11:34:17.093Z,43.86
2023-04-27T11:36:44.840Z,43.94
2023-04-27T11:39:21.973Z,42.84
2023-04-27T11:41:49.246Z,42.22
2023-04-27T11:44:19.825Z,42.83
2023-04-27T11:46:47.740Z,42.45
2023-04-27T11:49:15.510Z,43.31
2023-04-27T11:51:45.078Z,42.20
2023-04-27T11:54:13.337Z,41.68
2023-04-27T11:56:43.267Z,43.19
2023-04-27T11:59:21.693Z,41.82
2023-04-27T12:01:49.098Z,40.74
2023-04-27T12:04:17.214Z,43.97
2023-04-27T12:06:44.716Z,43.01
2023-04-27T12:09:12.241Z,43.03
2023-04-27T12:11:39.635Z,40.91
2023-04-27T12:14:08.189Z,41.30
2023-04-27T12:16:35.795Z,40.30
2023-04-27T12:19:03.146Z,41.08
2023-04-27T12:21:32.107Z,40.09
2023-04-27T12:23:59.265Z,39.71
2023-04-27T12:26:26.817Z,38.52
2023-04-27T12:28:54.250Z,37.10
2023-04-27T12:31:26.937Z,38.39
2023-04-27T12:33:57.684Z,39.50
2023-04-27T12:36:27.202Z,39.70
2023-04-27T12:38:59.156Z,40.65
2023-04-27T12:41:26.586Z,38.59
2023-04-27T12:43:54.300Z,37.92
2023-04-27T12:46:21.540Z,38.74
2023-04-27T12:48:48.874Z,38.31
2023-04-27T12:51:17.476Z,39.43
2023-04-27T12:53:44.756Z,39.52
2023-04-27T12:56:12.469Z,39.37
2023-04-27T12:58:40.085Z,39.42
2023-04-27T13:01:14.708Z,38.80
2023-04-27T13:03:48.431Z,39.54
2023-04-27T13:06:18.125Z,38.50
2023-04-27T13:08:46.035Z,35.56
2023-04-27T13:11:13.163Z,33.90
2023-04-27T13:13:41.116Z,33.74
2023-04-27T13:16:08.547Z,32.96
2023-04-27T13:18:35.931Z,34.16
2023-04-27T13:21:05.233Z,32.49
2023-04-27T13:23:32.677Z,33.72
2023-04-27T13:26:00.115Z,33.44
2023-04-27T13:28:27.223Z,32.58
2023-04-27T13:30:55.629Z,33.36
2023-04-27T13:33:23.833Z,34.14
2023-04-27T13:35:51.902Z,32.36
2023-04-27T13:38:19.041Z,32.35
2023-04-27T13:40:47.245Z,31.93
2023-04-27T13:43:14.362Z,32.16
2023-04-27T13:45:42.687Z,31.68
2023-04-27T13:48:10.227Z,31.87
2023-04-27T13:50:37.841Z,31.32
2023-04-27T13:53:05.316Z,30.72
2023-04-27T13:55:32.488Z,31.37
2023-04-27T13:57:59.617Z,30.52
2023-04-27T14:00:28.790Z,30.82
2023-04-27T14:02:56.184Z,30.06
2023-04-27T14:05:23.397Z,30.72
2023-04-27T14:07:50.595Z,30.82
2023-04-27T14:10:17.825Z,31.26
2023-04-27T14:12:45.926Z,31.84
2023-04-27T14:15:13.024Z,31.12
2023-04-27T14:17:40.477Z,31.17
2023-04-27T14:20:08.347Z,30.65
2023-04-27T14:22:36.179Z,31.78
2023-04-27T14:25:03.785Z,32.07
2023-04-27T14:27:31.154Z,31.00
2023-04-27T14:29:58.363Z,30.69
2023-04-27T14:32:26.463Z,31.19
2023-04-27T14:34:54.277Z,30.89
2023-04-27T14:37:21.430Z,31.31
2023-04-27T14:39:48.728Z,31.54
2023-04-27T14:42:16.345Z,31.33
2023-04-27T14:44:43.566Z,31.49
2023-04-27T14:47:10.815Z,33.28
2023-04-27T14:49:38.116Z,33.41
2023-04-27T14:52:06.749Z,31.56
2023-04-27T14:54:35.549Z,30.83
2023-04-27T14:57:06.611Z,31.22
2023-04-27T14:59:34.354Z,31.23
2023-04-27T15:02:01.668Z,33.27
2023-04-27T15:04:29.258Z,32.25
2023-04-27T15:06:56.532Z,33.16
2023-04-27T15:09:24.133Z,32.03
2023-04-27T15:11:51.227Z,31.09
2023-04-27T15:14:18.317Z,30.98
2023-04-27T15:16:45.918Z,30.77
2023-04-27T15:19:13.225Z,32.17
2023-04-27T15:21:40.620Z,31.36
2023-04-27T15:24:07.757Z,32.94
2023-04-27T15:26:35.500Z,32.55
2023-04-27T15:29:02.919Z,32.17
2023-04-27T15:31:30.022Z,34.20
2023-04-27T15:33:57.262Z,33.41
2023-04-27T15:36:26.783Z,32.20
2023-04-27T15:38:54.551Z,33.25
2023-04-27T15:41:22.109Z,33.56
2023-04-27T15:43:51.419Z,32.61
2023-04-27T15:46:19.017Z,32.00
2023-04-27T15:48:46.274Z,32.25
2023-04-27T15:51:13.495Z,32.76
2023-04-27T15:53:40.559Z,32.93
2023-04-27T15:56:07.724Z,34.34
2023-04-27T15:58:35.310Z,33.58
2023-04-27T16:01:03.036Z,34.23
2023-04-27T16:03:30.509Z,33.38
2023-04-27T16:05:57.636Z,33.88
2023-04-27T16:08:26.930Z,33.24
2023-04-27T16:10:54.425Z,33.72
2023-04-27T16:13:22.905Z,34.27
2023-04-27T16:15:50.058Z,33.60
2023-04-27T16:18:20.392Z,32.87
2023-04-27T16:20:47.494Z,33.19
2023-04-27T16:23:15.146Z,32.12
2023-04-27T16:25:42.292Z,32.44
2023-04-27T16:28:10.832Z,32.36
2023-04-27T16:30:38.811Z,33.52
2023-04-27T16:33:06.062Z,34.77
2023-04-27T16:35:34.251Z,34.88
2023-04-27T16:38:01.652Z,35.33
2023-04-27T16:40:28.777Z,36.44
2023-04-27T16:42:55.989Z,35.85
2023-04-27T16:45:23.252Z,36.71
2023-04-27T16:47:50.670Z,36.78
2023-04-27T16:50:18.009Z,36.99
2023-04-27T16:52:45.424Z,37.43
2023-04-27T16:55:12.538Z,37.39
2023-04-27T16:57:39.947Z,38.19
2023-04-27T17:00:09.772Z,38.23
2023-04-27T17:02:37.475Z,38.52
2023-04-27T17:05:05.429Z,38.75
2023-04-27T17:07:32.975Z,39.09
2023-04-27T17:10:00.186Z,38.48
2023-04-27T17:12:27.477Z,38.17
2023-04-27T17:14:54.666Z,38.45
2023-04-27T17:17:22.044Z,38.67
2023-04-27T17:19:49.323Z,38.44
2023-04-27T17:22:16.689Z,38.84
2023-04-27T17:24:43.820Z,39.44
2023-04-27T17:27:11.182Z,38.95
2023-04-27T17:29:38.259Z,39.62
2023-04-27T17:32:05.897Z,39.88
2023-04-27T17:34:33.262Z,40.10
2023-04-27T17:37:00.481Z,40.26
2023-04-27T17:39:28.246Z,41.64
2023-04-27T17:41:58.723Z,41.37
2023-04-27T17:44:25.883Z,41.84
2023-04-27T17:46:53.093Z,41.92
2023-04-27T17:49:20.325Z,41.50
2023-04-27T17:51:48.657Z,40.76
2023-04-27T17:54:16.086Z,40.93
2023-04-27T17:56:43.966Z,41.69
2023-04-27T17:59:11.164Z,42.38
2023-04-27T18:01:38.302Z,42.69
2023-04-27T18:04:08.826Z,42.83
2023-04-27T18:06:36.435Z,42.68
2023-04-27T18:09:04.323Z,43.52
2023-04-27T18:11:32.501Z,43.73
2023-04-27T18:13:59.763Z,43.51
2023-04-27T18:16:27.014Z,44.46
2023-04-27T18:18:54.456Z,44.12
2023-04-27T18:21:21.629Z,44.41
2023-04-27T18:23:48.731Z,44.73
2023-04-27T18:26:16.966Z,45.36
2023-04-27T18:28:44.164Z,45.04
2023-04-27T18:31:18.591Z,45.19
2023-04-27T18:33:47.095Z,46.07
2023-04-27T18:36:14.284Z,46.32
2023-04-27T18:38:41.513Z,46.71
2023-04-27T18:41:08.612Z,46.91
2023-04-27T18:43:39.071Z,46.54
2023-04-27T18:46:06.306Z,46.44
2023-04-27T18:48:33.520Z,46.58
2023-04-27T18:51:01.006Z,46.22
2023-04-27T18:53:28.439Z,47.16
2023-04-27T18:55:55.806Z,47.49
2023-04-27T18:58:23.411Z,47.00
2023-04-27T19:00:50.768Z,47.58
2023-04-27T19:03:18.120Z,48.06
2023-04-27T19:05:45.966Z,48.23
2023-04-27T19:08:13.240Z,48.79
2023-04-27T19:10:43.449Z,48.88
2023-04-27T19:13:10.627Z,49.01
2023-04-27T19:15:39.000Z,48.37
2023-04-27T19:18:11.516Z,48.72
2023-04-27T19:20:40.238Z,48.89
2023-04-27T19:23:09.373Z,48.65
2023-04-27T19:25:36.824Z,49.08
2023-04-27T19:28:05.760Z,48.58
2023-04-27T19:30:32.834Z,49.03
2023-04-27T19:33:00.027Z,49.33
2023-04-27T19:35:27.576Z,49.19
2023-04-27T19:37:57.615Z,49.13
2023-04-27T19:40:25.063Z,50.10
2023-04-27T19:42:52.192Z,50.34
2023-04-27T19:45:19.245Z,51.02
2023-04-27T19:47:47.118Z,50.60
2023-04-27T19:50:14.764Z,49.98
2023-04-27T19:52:41.893Z,51.03
2023-04-27T19:55:09.415Z,51.34
2023-04-27T19:57:36.501Z,52.67
2023-04-27T20:00:05.352Z,52.80
2023-04-27T20:02:32.938Z,52.79
2023-04-27T20:05:00.480Z,52.53
2023-04-27T20:07:27.800Z,51.98
2023-04-27T20:09:55.304Z,53.09
2023-04-27T20:12:43.437Z,54.29
2023-04-27T20:15:10.228Z,54.32
2023-04-27T20:17:37.722Z,54.09
2023-04-27T20:20:10.156Z,53.98
2023-04-27T20:22:38.018Z,54.16
2023-04-27T20:25:07.883Z,54.10
2023-04-27T20:27:35.866Z,53.79
2023-04-27T20:30:04.317Z,55.58
2023-04-27T20:32:31.638Z,55.74
2023-04-27T20:35:00.172Z,56.54
2023-04-27T20:37:28.629Z,56.81
2023-04-27T20:39:55.923Z,57.25
2023-04-27T20:42:23.034Z,57.28
2023-04-27T20:44:50.469Z,56.30
2023-04-27T20:47:17.663Z,57.68
2023-04-27T20:49:44.713Z,58.58
2023-04-27T20:52:11.840Z,58.71
2023-04-27T20:54:39.832Z,59.24
2023-04-27T20:57:13.512Z,59.52
2023-04-27T20:59:41.090Z,58.89
2023-04-27T21:02:08.338Z,58.95
2023-04-27T21:04:35.904Z,60.68
2023-04-27T21:07:03.078Z,61.19
2023-04-27T21:09:30.358Z,63.37
2023-04-27T21:11:57.454Z,62.92
2023-04-27T21:14:24.983Z,64.46
2023-04-27T21:16:52.075Z,64.43
2023-04-27T21:19:19.174Z,65.56
2023-04-27T21:21:46.357Z,70.24
2023-04-27T21:24:13.650Z,68.61
2023-04-27T21:26:42.196Z,66.78
2023-04-27T21:29:09.361Z,67.29
2023-04-27T21:31:36.756Z,67.56
2023-04-27T21:34:04.360Z,69.04
2023-04-27T21:36:33.150Z,69.25
2023-04-27T21:39:00.257Z,68.47
2023-04-27T21:41:27.461Z,69.63
2023-04-27T21:43:57.474Z,70.51
2023-04-27T21:46:25.236Z,72.62
2023-04-27T21:48:52.373Z,72.42
2023-04-27T21:51:19.474Z,74.90
2023-04-27T21:53:47.157Z,74.16
2023-04-27T21:56:14.328Z,76.21
2023-04-27T21:58:41.563Z,76.61
2023-04-27T22:01:08.714Z,76.89
2023-04-27T22:03:37.017Z,77.84
2023-04-27T22:06:05.006Z,76.57
2023-04-27T22:08:32.389Z,77.94
2023-04-27T22:10:59.503Z,77.95
2023-04-27T22:13:26.809Z,77.54
2023-04-27T22:15:54.037Z,79.02
2023-04-27T22:18:21.151Z,79.53
2023-04-27T22:20:49.427Z,80.37
2023-04-27T22:23:17.148Z,80.95
2023-04-27T22:25:44.316Z,80.94
2023-04-27T22:28:11.482Z,81.71
2023-04-27T22:30:40.798Z,82.16
2023-04-27T22:33:08.696Z,82.17
2023-04-27T22:35:36.965Z,81.06
2023-04-27T22:38:04.230Z,81.98
2023-04-27T22:40:31.345Z,80.19
2023-04-27T22:43:01.833Z,78.72
2023-04-27T22:45:28.891Z,79.32
2023-04-27T22:47:57.496Z,77.50
2023-04-27T22:50:25.064Z,77.83
2023-04-27T22:52:53.123Z,78.38
2023-04-27T22:55:20.347Z,78.32
2023-04-27T22:57:49.828Z,79.15
2023-04-27T23:00:17.681Z,77.67
2023-04-27T23:02:45.112Z,76.78
2023-04-27T23:05:12.520Z,75.86
2023-04-27T23:07:41.375Z,77.14
2023-04-27T23:10:09.348Z,75.76
2023-04-27T23:12:37.949Z,76.05
2023-04-27T23:15:08.199Z,74.64
2023-04-27T23:17:35.944Z,75.10
2023-04-27T23:20:20.361Z,74.27
2023-04-27T23:22:54.187Z,73.43
2023-04-27T23:25:21.554Z,74.99
2023-04-27T23:27:49.947Z,76.33
2023-04-27T23:30:18.938Z,74.33
2023-04-27T23:32:46.264Z,74.25
2023-04-27T23:35:13.360Z,73.93
2023-04-27T23:37:40.507Z,74.56
2023-04-27T23:40:08.497Z,72.74
2023-04-27T23:42:36.084Z,72.37
2023-04-27T23:45:04.489Z,74.29
2023-04-27T23:47:33.729Z,71.77
2023-04-27T23:50:02.694Z,72.20
2023-04-27T23:52:29.726Z,76.25
2023-04-27T23:54:58.140Z,77.08
2023-04-27T23:57:25.539Z,74.19
2023-04-27T23:59:52.562Z,73.42
